BAW181 EGLL-KJFK
Flight info
| Callsign | BAW181 |
|---|---|
| Flight time | N/A |
| Altitude | 36000 |
| Route | CPT L9 BUCGO DCT FELCA DCT OFSOX DCT BANBA DCT LIMRI/M083F360 NATE TUDEP/N0490F380 DCT TUSKY DCT PLYMM PARCH4 |
| Aircraft | B77W/H-SDE1E2E3FGHIJ2J3J4J5M1RWXY/LB1D1 |
Departure
| Time | 2026-05-04 11:44 |
|---|---|
| Airport | London Heathrow Airport (EGLL) |
Arrival
| Time | N/A |
|---|---|
| Airport | John F. Kennedy International Airport (KJFK) |
| Time | Latitude | Longitude | Altitude | Speed | Heading |
|---|---|---|---|---|---|
| 2026-05-04 10:51 | 51.46848 | -0.48237 | 92 ft | 0 kts | 89° |
| 2026-05-04 11:31 | 51.46853 | -0.48334 | 92 ft | 2 kts | 124° |
| 2026-05-04 11:33 | 51.46943 | -0.48356 | 93 ft | 0 kts | 180° |
| 2026-05-04 11:35 | 51.46938 | -0.48356 | 93 ft | 3 kts | 180° |
| 2026-05-04 11:36 | 51.46893 | -0.48356 | 91 ft | 10 kts | 180° |
| 2026-05-04 11:36 | 51.46822 | -0.48356 | 93 ft | 10 kts | 180° |
| 2026-05-04 11:36 | 51.46757 | -0.48324 | 93 ft | 10 kts | 128° |
| 2026-05-04 11:36 | 51.46723 | -0.48241 | 95 ft | 9 kts | 147° |
| 2026-05-04 11:37 | 51.46668 | -0.48194 | 95 ft | 9 kts | 136° |
| 2026-05-04 11:37 | 51.46654 | -0.48088 | 93 ft | 12 kts | 90° |
| 2026-05-04 11:37 | 51.46654 | -0.47945 | 91 ft | 13 kts | 90° |
| 2026-05-04 11:37 | 51.46654 | -0.47768 | 91 ft | 20 kts | 90° |
| 2026-05-04 11:38 | 51.46654 | -0.47539 | 91 ft | 21 kts | 89° |
| 2026-05-04 11:38 | 51.46656 | -0.47308 | 94 ft | 21 kts | 89° |
| 2026-05-04 11:38 | 51.46657 | -0.47076 | 95 ft | 21 kts | 89° |
| 2026-05-04 11:38 | 51.46658 | -0.46844 | 95 ft | 21 kts | 90° |
| 2026-05-04 11:39 | 51.46658 | -0.46612 | 95 ft | 21 kts | 90° |
| 2026-05-04 11:39 | 51.46658 | -0.46382 | 95 ft | 21 kts | 90° |
| 2026-05-04 11:40 | 51.46663 | -0.44994 | 92 ft | 21 kts | 90° |
| 2026-05-04 11:41 | 51.46664 | -0.44761 | 92 ft | 21 kts | 90° |
| 2026-05-04 11:41 | 51.46665 | -0.44530 | 92 ft | 21 kts | 90° |
| 2026-05-04 11:41 | 51.46665 | -0.44301 | 92 ft | 21 kts | 90° |
| 2026-05-04 11:41 | 51.46666 | -0.44095 | 91 ft | 17 kts | 89° |
| 2026-05-04 11:42 | 51.46667 | -0.43910 | 91 ft | 15 kts | 89° |
| 2026-05-04 11:42 | 51.46625 | -0.43831 | 95 ft | 6 kts | 177° |
| 2026-05-04 11:42 | 51.46585 | -0.43827 | 90 ft | 7 kts | 177° |
| 2026-05-04 11:42 | 51.46534 | -0.43825 | 90 ft | 8 kts | 179° |
| 2026-05-04 11:43 | 51.46497 | -0.43879 | 90 ft | 8 kts | 250° |
| 2026-05-04 11:43 | 51.46492 | -0.44021 | 90 ft | 26 kts | 269° |
| 2026-05-04 11:43 | 51.46492 | -0.44675 | 93 ft | 95 kts | 270° |
| 2026-05-04 11:43 | 51.46487 | -0.46135 | 95 ft | 160 kts | 269° |
| 2026-05-04 11:44 | 51.46490 | -0.48131 | 263 ft | 191 kts | 272° |
| 2026-05-04 11:44 | 51.46492 | -0.50265 | 990 ft | 192 kts | 271° |
| 2026-05-04 11:44 | 51.46458 | -0.52414 | 1720 ft | 195 kts | 269° |
| 2026-05-04 11:44 | 51.46409 | -0.54723 | 2044 ft | 220 kts | 269° |
| 2026-05-04 11:45 | 51.46362 | -0.57296 | 2429 ft | 240 kts | 269° |
| 2026-05-04 11:45 | 51.46309 | -0.60033 | 3115 ft | 250 kts | 268° |
| 2026-05-04 11:45 | 51.46233 | -0.62861 | 3822 ft | 258 kts | 263° |
| 2026-05-04 11:45 | 51.45889 | -0.65708 | 4591 ft | 261 kts | 259° |
| 2026-05-04 11:46 | 51.45677 | -0.68624 | 5411 ft | 264 kts | 265° |
| 2026-05-04 11:46 | 51.45552 | -0.71576 | 6349 ft | 265 kts | 265° |
| 2026-05-04 11:46 | 51.45429 | -0.74539 | 7164 ft | 268 kts | 265° |
| 2026-05-04 11:46 | 51.45345 | -0.77544 | 7936 ft | 271 kts | 268° |
| 2026-05-04 11:47 | 51.45327 | -0.80558 | 8729 ft | 274 kts | 268° |
| 2026-05-04 11:47 | 51.45308 | -0.83634 | 9542 ft | 277 kts | 268° |
| 2026-05-04 11:47 | 51.45282 | -0.86744 | 10305 ft | 281 kts | 267° |
| 2026-05-04 11:47 | 51.45396 | -0.89971 | 10610 ft | 302 kts | 277° |
| 2026-05-04 11:48 | 51.45812 | -0.93420 | 10818 ft | 328 kts | 280° |
| 2026-05-04 11:48 | 51.46291 | -0.97116 | 11226 ft | 345 kts | 279° |
| 2026-05-04 11:48 | 51.46762 | -1.00954 | 11899 ft | 355 kts | 279° |
| 2026-05-04 11:48 | 51.47236 | -1.04892 | 12766 ft | 361 kts | 279° |
| 2026-05-04 11:49 | 51.47711 | -1.08846 | 13675 ft | 365 kts | 279° |
| 2026-05-04 11:49 | 51.48197 | -1.12896 | 14517 ft | 371 kts | 279° |
| 2026-05-04 11:49 | 51.48687 | -1.16983 | 15337 ft | 375 kts | 279° |
| 2026-05-04 11:49 | 51.49297 | -1.21025 | 16000 ft | 380 kts | 291° |
| 2026-05-04 11:50 | 51.50759 | -1.24609 | 16664 ft | 392 kts | 313° |
| 2026-05-04 11:50 | 51.52799 | -1.27570 | 17349 ft | 397 kts | 317° |
| 2026-05-04 11:50 | 51.54870 | -1.30567 | 18123 ft | 402 kts | 316° |
| 2026-05-04 11:50 | 51.56929 | -1.33635 | 18870 ft | 406 kts | 315° |
| 2026-05-04 11:51 | 51.58954 | -1.36760 | 19611 ft | 408 kts | 311° |
| 2026-05-04 11:51 | 51.60792 | -1.40275 | 20343 ft | 411 kts | 305° |
| 2026-05-04 11:51 | 51.62389 | -1.44107 | 21041 ft | 414 kts | 298° |
| 2026-05-04 11:51 | 51.63761 | -1.48214 | 21723 ft | 417 kts | 295° |
| 2026-05-04 11:52 | 51.65086 | -1.52354 | 22394 ft | 422 kts | 295° |
| 2026-05-04 11:52 | 51.66454 | -1.56587 | 23074 ft | 426 kts | 296° |
| 2026-05-04 11:52 | 51.67851 | -1.60852 | 23733 ft | 430 kts | 296° |
| 2026-05-04 11:52 | 51.69172 | -1.65128 | 24274 ft | 433 kts | 291° |
| 2026-05-04 11:53 | 51.70182 | -1.69733 | 24833 ft | 434 kts | 284° |
| 2026-05-04 11:53 | 51.70876 | -1.74470 | 25403 ft | 435 kts | 277° |
| 2026-05-04 11:53 | 51.71245 | -1.79329 | 25975 ft | 437 kts | 274° |
| 2026-05-04 11:53 | 51.71553 | -1.84176 | 26516 ft | 440 kts | 274° |
| 2026-05-04 11:55 | 51.74017 | -2.19529 | 29981 ft | 464 kts | 274° |
| 2026-05-04 11:55 | 51.74379 | -2.24750 | 30346 ft | 468 kts | 275° |
| 2026-05-04 11:56 | 51.74735 | -2.29923 | 30664 ft | 471 kts | 275° |
| 2026-05-04 11:56 | 51.75098 | -2.35201 | 30998 ft | 474 kts | 275° |
| 2026-05-04 11:56 | 51.75459 | -2.40499 | 31403 ft | 475 kts | 275° |
| 2026-05-04 11:56 | 51.75819 | -2.45811 | 31838 ft | 474 kts | 275° |
| 2026-05-04 11:57 | 51.76176 | -2.51132 | 32247 ft | 475 kts | 275° |
| 2026-05-04 11:57 | 51.76524 | -2.56439 | 32621 ft | 476 kts | 275° |
| 2026-05-04 11:57 | 51.76853 | -2.61710 | 32991 ft | 477 kts | 275° |
| 2026-05-04 11:57 | 51.77188 | -2.67061 | 33369 ft | 477 kts | 275° |
| 2026-05-04 11:58 | 51.77531 | -2.72415 | 33726 ft | 479 kts | 275° |
| 2026-05-04 11:58 | 51.77877 | -2.77782 | 34054 ft | 480 kts | 275° |
| 2026-05-04 11:58 | 51.78218 | -2.83091 | 34324 ft | 481 kts | 275° |
| 2026-05-04 11:58 | 51.78563 | -2.88518 | 34554 ft | 483 kts | 275° |
| 2026-05-04 11:59 | 51.78905 | -2.93942 | 34785 ft | 485 kts | 275° |
| 2026-05-04 11:59 | 51.79240 | -2.99315 | 34979 ft | 487 kts | 275° |
| 2026-05-04 11:59 | 51.79582 | -3.04838 | 35181 ft | 489 kts | 275° |
| 2026-05-04 11:59 | 51.79917 | -3.10304 | 35415 ft | 489 kts | 275° |
| 2026-05-04 12:00 | 51.80247 | -3.15718 | 35651 ft | 490 kts | 275° |
| 2026-05-04 12:00 | 51.80578 | -3.21206 | 35871 ft | 490 kts | 275° |
| 2026-05-04 12:00 | 51.80908 | -3.26711 | 35961 ft | 489 kts | 275° |
| 2026-05-04 12:01 | 51.81550 | -3.37548 | 36034 ft | 483 kts | 275° |
| 2026-05-04 12:02 | 51.85270 | -3.75528 | 36038 ft | 493 kts | 282° |
| 2026-05-04 12:03 | 51.86699 | -3.86396 | 36040 ft | 492 kts | 282° |
| 2026-05-04 12:03 | 51.88088 | -3.97263 | 36042 ft | 492 kts | 282° |
| 2026-05-04 12:04 | 51.89446 | -4.08040 | 36041 ft | 491 kts | 282° |
| 2026-05-04 12:04 | 51.90805 | -4.18897 | 36040 ft | 491 kts | 282° |
| 2026-05-04 12:05 | 51.92154 | -4.29750 | 36043 ft | 491 kts | 282° |
| 2026-05-04 12:05 | 51.93494 | -4.40619 | 36046 ft | 491 kts | 282° |
| 2026-05-04 12:06 | 51.94815 | -4.51414 | 36036 ft | 491 kts | 282° |
| 2026-05-04 12:06 | 51.96139 | -4.62322 | 36049 ft | 492 kts | 282° |
| 2026-05-04 12:07 | 51.97452 | -4.73231 | 36043 ft | 493 kts | 282° |
| 2026-05-04 12:07 | 51.98748 | -4.84091 | 36052 ft | 493 kts | 282° |
| 2026-05-04 12:08 | 51.99827 | -4.93195 | 36052 ft | 494 kts | 282° |
| 2026-05-04 12:08 | 52.01118 | -5.04172 | 36043 ft | 495 kts | 282° |
| 2026-05-04 12:09 | 52.02329 | -5.15197 | 36051 ft | 496 kts | 277° |
| 2026-05-04 12:09 | 52.02506 | -5.26394 | 36048 ft | 498 kts | 265° |
| 2026-05-04 12:10 | 52.01720 | -5.37597 | 36058 ft | 499 kts | 263° |
| 2026-05-04 12:10 | 52.00868 | -5.48793 | 36059 ft | 499 kts | 264° |
| 2026-05-04 12:11 | 52.00053 | -5.59938 | 36057 ft | 500 kts | 264° |
| 2026-05-04 12:11 | 51.99243 | -5.71190 | 36058 ft | 500 kts | 264° |
| 2026-05-04 12:12 | 51.98431 | -5.82344 | 36059 ft | 501 kts | 264° |
| 2026-05-04 12:12 | 51.97599 | -5.93589 | 36063 ft | 501 kts | 264° |
| 2026-05-04 12:14 | 51.95821 | -6.38603 | 36073 ft | 501 kts | 276° |
| 2026-05-04 12:15 | 51.96338 | -6.49826 | 36069 ft | 502 kts | 276° |
| 2026-05-04 12:15 | 51.96821 | -6.61164 | 36072 ft | 503 kts | 275° |
| 2026-05-04 12:16 | 51.97266 | -6.72477 | 36072 ft | 504 kts | 275° |
| 2026-05-04 12:16 | 51.97694 | -6.83845 | 36075 ft | 504 kts | 275° |
| 2026-05-04 12:17 | 51.98111 | -6.95180 | 36074 ft | 505 kts | 275° |
| 2026-05-04 12:17 | 51.98521 | -7.06589 | 36072 ft | 505 kts | 275° |
| 2026-05-04 12:18 | 51.98920 | -7.17985 | 36074 ft | 505 kts | 275° |
| 2026-05-04 12:18 | 51.99306 | -7.29303 | 36072 ft | 505 kts | 275° |
| 2026-05-04 12:19 | 51.99684 | -7.40724 | 36069 ft | 505 kts | 275° |
| 2026-05-04 12:19 | 52.00051 | -7.52133 | 36068 ft | 505 kts | 275° |
| 2026-05-04 12:20 | 52.00404 | -7.63483 | 36069 ft | 505 kts | 275° |
| 2026-05-04 12:20 | 52.00749 | -7.74895 | 36067 ft | 505 kts | 275° |
| 2026-05-04 12:21 | 52.01082 | -7.86310 | 36074 ft | 505 kts | 275° |
| 2026-05-04 12:21 | 52.01402 | -7.97658 | 36067 ft | 505 kts | 275° |
| 2026-05-04 12:22 | 52.01714 | -8.09082 | 36072 ft | 505 kts | 275° |
| 2026-05-04 12:22 | 52.02013 | -8.20421 | 36072 ft | 505 kts | 275° |
| 2026-05-04 12:23 | 52.02301 | -8.31824 | 36078 ft | 504 kts | 274° |
| 2026-05-04 12:23 | 52.02578 | -8.43175 | 36074 ft | 504 kts | 274° |
| 2026-05-04 12:24 | 52.02845 | -8.54576 | 36073 ft | 504 kts | 274° |
| 2026-05-04 12:24 | 52.03100 | -8.65945 | 36077 ft | 503 kts | 274° |
| 2026-05-04 12:25 | 52.03344 | -8.77268 | 36085 ft | 503 kts | 274° |
| 2026-05-04 12:25 | 52.03576 | -8.88588 | 36090 ft | 503 kts | 274° |
| 2026-05-04 12:26 | 52.03799 | -8.99987 | 36092 ft | 503 kts | 274° |
| 2026-05-04 12:26 | 52.04009 | -9.11282 | 36106 ft | 502 kts | 274° |
| 2026-05-04 12:27 | 52.04209 | -9.22655 | 36117 ft | 502 kts | 274° |
| 2026-05-04 12:27 | 52.04399 | -9.34025 | 36114 ft | 502 kts | 274° |
| 2026-05-04 12:28 | 52.04577 | -9.45303 | 36121 ft | 502 kts | 274° |
| 2026-05-04 12:28 | 52.04744 | -9.56645 | 36126 ft | 501 kts | 274° |
| 2026-05-04 12:29 | 52.04899 | -9.67925 | 36127 ft | 501 kts | 274° |
| 2026-05-04 12:29 | 52.05045 | -9.79273 | 36121 ft | 500 kts | 274° |
| 2026-05-04 12:30 | 52.05179 | -9.90531 | 36119 ft | 500 kts | 274° |
| 2026-05-04 12:30 | 52.05302 | -10.01844 | 36115 ft | 499 kts | 273° |
| 2026-05-04 12:31 | 52.05415 | -10.13134 | 36115 ft | 499 kts | 273° |
| 2026-05-04 12:31 | 52.05516 | -10.24367 | 36114 ft | 498 kts | 273° |
| 2026-05-04 12:32 | 52.05648 | -10.41226 | 36131 ft | 497 kts | 273° |
| 2026-05-04 12:33 | 52.05722 | -10.52468 | 36135 ft | 496 kts | 273° |
| 2026-05-04 12:33 | 52.05786 | -10.63677 | 36136 ft | 496 kts | 273° |
| 2026-05-04 12:34 | 52.05839 | -10.74831 | 36131 ft | 495 kts | 273° |
| 2026-05-04 12:34 | 52.05881 | -10.86027 | 36138 ft | 495 kts | 273° |
| 2026-05-04 12:35 | 52.05913 | -10.97226 | 36139 ft | 494 kts | 273° |
| 2026-05-04 12:35 | 52.05934 | -11.08347 | 36154 ft | 494 kts | 272° |
| 2026-05-04 12:36 | 52.05945 | -11.19522 | 36149 ft | 493 kts | 272° |
| 2026-05-04 12:36 | 52.05945 | -11.30674 | 36155 ft | 492 kts | 272° |
| 2026-05-04 12:37 | 52.05935 | -11.41748 | 36162 ft | 492 kts | 272° |
| 2026-05-04 12:37 | 52.05914 | -11.52904 | 36156 ft | 491 kts | 272° |
| 2026-05-04 12:38 | 52.05883 | -11.63974 | 36164 ft | 491 kts | 272° |
| 2026-05-04 12:38 | 52.05842 | -11.75001 | 36165 ft | 490 kts | 272° |
| 2026-05-04 12:39 | 52.05790 | -11.86114 | 36170 ft | 490 kts | 272° |
| 2026-05-04 12:39 | 52.05727 | -11.97189 | 36176 ft | 489 kts | 272° |
| 2026-05-04 12:40 | 52.05655 | -12.08186 | 36174 ft | 488 kts | 272° |
| 2026-05-04 12:40 | 52.05573 | -12.19217 | 36176 ft | 488 kts | 271° |
| 2026-05-04 12:41 | 52.05480 | -12.30197 | 36181 ft | 487 kts | 271° |
| 2026-05-04 12:41 | 52.05377 | -12.41211 | 36186 ft | 487 kts | 271° |
| 2026-05-04 12:42 | 52.05264 | -12.52231 | 36186 ft | 486 kts | 271° |
| 2026-05-04 12:42 | 52.05141 | -12.63178 | 36183 ft | 486 kts | 271° |
| 2026-05-04 12:43 | 52.05008 | -12.74152 | 36188 ft | 485 kts | 271° |
| 2026-05-04 12:43 | 52.04865 | -12.85084 | 36196 ft | 485 kts | 271° |
| 2026-05-04 12:44 | 52.04711 | -12.96052 | 36199 ft | 484 kts | 271° |
| 2026-05-04 12:44 | 52.04548 | -13.06986 | 36191 ft | 484 kts | 271° |
| 2026-05-04 12:45 | 52.04376 | -13.17863 | 36196 ft | 483 kts | 271° |
| 2026-05-04 12:45 | 52.04192 | -13.28804 | 36197 ft | 483 kts | 270° |
| 2026-05-04 12:46 | 52.04000 | -13.39670 | 36197 ft | 482 kts | 270° |
| 2026-05-04 12:46 | 52.03797 | -13.50569 | 36199 ft | 482 kts | 270° |
| 2026-05-04 12:47 | 52.03586 | -13.61371 | 36206 ft | 481 kts | 270° |
| 2026-05-04 12:47 | 52.03364 | -13.72243 | 36206 ft | 480 kts | 270° |
| 2026-05-04 12:48 | 52.03132 | -13.83098 | 36204 ft | 480 kts | 270° |
| 2026-05-04 12:48 | 52.02891 | -13.93893 | 36208 ft | 479 kts | 270° |
| 2026-05-04 12:49 | 52.02639 | -14.04725 | 36206 ft | 479 kts | 269° |
| 2026-05-04 12:49 | 52.02379 | -14.15494 | 36212 ft | 478 kts | 269° |
| 2026-05-04 12:50 | 52.02108 | -14.26314 | 36212 ft | 478 kts | 269° |
| 2026-05-04 12:50 | 52.01830 | -14.37056 | 36212 ft | 478 kts | 269° |
| 2026-05-04 12:51 | 52.01540 | -14.47844 | 36213 ft | 478 kts | 269° |
| 2026-05-04 12:51 | 52.01242 | -14.58563 | 36217 ft | 477 kts | 269° |
| 2026-05-04 12:52 | 52.00933 | -14.69344 | 36218 ft | 477 kts | 269° |
| 2026-05-04 12:52 | 52.00615 | -14.80108 | 36219 ft | 476 kts | 269° |
| 2026-05-04 12:53 | 52.00290 | -14.90786 | 36214 ft | 476 kts | 269° |
| 2026-05-04 12:53 | 52.00711 | -15.01461 | 36227 ft | 472 kts | 282° |
| 2026-05-04 12:53 | 52.01602 | -15.06560 | 36216 ft | 468 kts | 295° |
| 2026-05-04 12:54 | 52.02561 | -15.09695 | 36231 ft | 466 kts | 302° |
| 2026-05-04 12:54 | 52.05173 | -15.15200 | 36219 ft | 461 kts | 317° |
| 2026-05-04 12:54 | 52.07363 | -15.18982 | 36230 ft | 461 kts | 309° |
| 2026-05-04 12:55 | 52.09827 | -15.26691 | 36246 ft | 466 kts | 291° |
| 2026-05-04 12:55 | 52.11956 | -15.36718 | 36237 ft | 471 kts | 290° |
| 2026-05-04 12:56 | 52.14078 | -15.46809 | 36239 ft | 474 kts | 290° |
| 2026-05-04 12:56 | 52.16278 | -15.56984 | 36232 ft | 475 kts | 290° |
| 2026-05-04 12:57 | 52.18482 | -15.67055 | 36227 ft | 474 kts | 290° |
| 2026-05-04 12:57 | 52.20693 | -15.77168 | 36226 ft | 472 kts | 290° |
| 2026-05-04 12:58 | 52.22883 | -15.87248 | 36231 ft | 469 kts | 290° |
| 2026-05-04 12:58 | 52.25034 | -15.97204 | 36233 ft | 467 kts | 290° |
| 2026-05-04 12:59 | 52.27180 | -16.07188 | 36240 ft | 465 kts | 290° |
| 2026-05-04 12:59 | 52.29313 | -16.17163 | 36239 ft | 463 kts | 289° |
| 2026-05-04 13:00 | 52.31432 | -16.27122 | 36239 ft | 462 kts | 289° |
| 2026-05-04 13:00 | 52.33526 | -16.37010 | 36243 ft | 462 kts | 289° |
| 2026-05-04 13:01 | 52.35623 | -16.46961 | 36243 ft | 462 kts | 289° |
| 2026-05-04 13:01 | 52.37698 | -16.56853 | 36244 ft | 461 kts | 289° |
| 2026-05-04 13:02 | 52.39773 | -16.66800 | 36249 ft | 461 kts | 289° |
| 2026-05-04 13:02 | 52.41829 | -16.76700 | 36247 ft | 460 kts | 288° |
| 2026-05-04 13:03 | 52.43885 | -16.86656 | 36247 ft | 459 kts | 288° |
| 2026-05-04 13:03 | 52.45916 | -16.96532 | 36251 ft | 458 kts | 288° |
| 2026-05-04 13:04 | 52.47949 | -17.06466 | 36252 ft | 458 kts | 288° |
| 2026-05-04 13:04 | 52.49968 | -17.16392 | 36252 ft | 457 kts | 288° |
| 2026-05-04 13:05 | 52.51967 | -17.26259 | 36253 ft | 457 kts | 288° |
| 2026-05-04 13:05 | 52.53956 | -17.36132 | 36252 ft | 457 kts | 288° |
| 2026-05-04 13:06 | 52.55949 | -17.46072 | 36259 ft | 457 kts | 288° |
| 2026-05-04 13:06 | 52.57920 | -17.55957 | 36258 ft | 457 kts | 288° |
| 2026-05-04 13:07 | 52.59895 | -17.65910 | 36257 ft | 457 kts | 287° |
| 2026-05-04 13:07 | 52.61854 | -17.75829 | 36259 ft | 457 kts | 287° |
| 2026-05-04 13:08 | 52.63817 | -17.85824 | 36262 ft | 457 kts | 287° |
| 2026-05-04 13:08 | 52.65759 | -17.95762 | 36266 ft | 457 kts | 287° |
| 2026-05-04 13:09 | 52.67701 | -18.05752 | 36265 ft | 457 kts | 287° |
| 2026-05-04 13:09 | 52.69624 | -18.15695 | 36262 ft | 457 kts | 287° |
| 2026-05-04 13:10 | 52.71545 | -18.25687 | 36265 ft | 457 kts | 287° |
| 2026-05-04 13:10 | 52.73461 | -18.35697 | 36270 ft | 457 kts | 287° |
| 2026-05-04 13:11 | 52.75365 | -18.45699 | 36272 ft | 457 kts | 287° |
| 2026-05-04 13:11 | 52.77250 | -18.55654 | 36276 ft | 457 kts | 287° |
| 2026-05-04 13:12 | 52.79140 | -18.65691 | 36274 ft | 457 kts | 287° |
| 2026-05-04 13:12 | 52.81022 | -18.75739 | 36278 ft | 457 kts | 287° |
| 2026-05-04 13:13 | 52.82881 | -18.85712 | 36279 ft | 456 kts | 287° |
| 2026-05-04 13:13 | 52.84748 | -18.95783 | 36275 ft | 456 kts | 287° |
| 2026-05-04 13:14 | 52.86600 | -19.05834 | 36281 ft | 456 kts | 287° |
| 2026-05-04 13:14 | 52.88438 | -19.15861 | 36278 ft | 456 kts | 286° |
| 2026-05-04 13:15 | 52.90276 | -19.25940 | 36283 ft | 456 kts | 286° |
| 2026-05-04 13:15 | 52.92093 | -19.35960 | 36286 ft | 456 kts | 286° |
| 2026-05-04 13:16 | 52.93905 | -19.46007 | 36291 ft | 456 kts | 286° |
| 2026-05-04 13:16 | 52.95715 | -19.56101 | 36288 ft | 456 kts | 286° |
| 2026-05-04 13:17 | 52.97516 | -19.66199 | 36291 ft | 455 kts | 286° |
| 2026-05-04 13:17 | 52.99295 | -19.76230 | 36294 ft | 455 kts | 286° |
| 2026-05-04 13:18 | 53.01076 | -19.86323 | 36293 ft | 455 kts | 286° |
| 2026-05-04 13:18 | 53.02842 | -19.96396 | 36299 ft | 455 kts | 286° |
| 2026-05-04 13:19 | 53.04123 | -20.06681 | 36308 ft | 454 kts | 273° |
| 2026-05-04 13:19 | 53.04319 | -20.17145 | 36302 ft | 455 kts | 272° |
| 2026-05-04 13:20 | 53.04531 | -20.27682 | 36303 ft | 455 kts | 273° |
| 2026-05-04 13:20 | 53.04869 | -20.38152 | 36305 ft | 456 kts | 274° |
| 2026-05-04 13:21 | 53.05266 | -20.48675 | 36308 ft | 456 kts | 274° |
| 2026-05-04 13:21 | 53.05670 | -20.59232 | 36308 ft | 457 kts | 274° |
| 2026-05-04 13:22 | 53.06058 | -20.69703 | 36315 ft | 457 kts | 274° |
| 2026-05-04 13:22 | 53.06437 | -20.80260 | 36315 ft | 457 kts | 274° |
| 2026-05-04 13:23 | 53.06805 | -20.90834 | 36317 ft | 457 kts | 274° |
| 2026-05-04 13:23 | 53.07162 | -21.01385 | 36316 ft | 457 kts | 274° |
| 2026-05-04 13:24 | 53.07511 | -21.11955 | 36320 ft | 457 kts | 274° |
| 2026-05-04 13:24 | 53.07849 | -21.22460 | 36320 ft | 456 kts | 273° |
| 2026-05-04 13:25 | 53.08339 | -21.38251 | 36326 ft | 456 kts | 273° |
| 2026-05-04 13:25 | 53.08654 | -21.48793 | 36328 ft | 456 kts | 273° |
| 2026-05-04 13:26 | 53.08961 | -21.59345 | 36327 ft | 456 kts | 273° |
| 2026-05-04 13:26 | 53.09257 | -21.69887 | 36327 ft | 456 kts | 273° |
| 2026-05-04 13:27 | 53.09545 | -21.80427 | 36331 ft | 456 kts | 273° |
| 2026-05-04 13:27 | 53.09821 | -21.90904 | 36334 ft | 456 kts | 273° |
| 2026-05-04 13:28 | 53.10090 | -22.01483 | 36337 ft | 456 kts | 273° |
| 2026-05-04 13:28 | 53.10350 | -22.12054 | 36335 ft | 456 kts | 273° |
| 2026-05-04 13:29 | 53.10599 | -22.22554 | 36338 ft | 456 kts | 273° |
| 2026-05-04 13:29 | 53.10841 | -22.33135 | 36342 ft | 456 kts | 273° |
| 2026-05-04 13:30 | 53.11071 | -22.43636 | 36344 ft | 457 kts | 273° |
| 2026-05-04 13:30 | 53.11294 | -22.54211 | 36348 ft | 457 kts | 273° |
| 2026-05-04 13:31 | 53.11507 | -22.64799 | 36347 ft | 457 kts | 273° |
| 2026-05-04 13:31 | 53.11710 | -22.75316 | 36349 ft | 457 kts | 273° |
| 2026-05-04 13:32 | 53.11905 | -22.85905 | 36347 ft | 456 kts | 273° |
| 2026-05-04 13:32 | 53.12090 | -22.96495 | 36350 ft | 456 kts | 273° |
| 2026-05-04 13:33 | 53.12265 | -23.07008 | 36352 ft | 456 kts | 273° |
| 2026-05-04 13:33 | 53.12431 | -23.17571 | 36356 ft | 455 kts | 273° |
| 2026-05-04 13:34 | 53.12588 | -23.28137 | 36358 ft | 455 kts | 273° |
| 2026-05-04 13:34 | 53.12734 | -23.38608 | 36356 ft | 455 kts | 272° |
| 2026-05-04 13:35 | 53.12938 | -23.54431 | 36360 ft | 454 kts | 272° |
| 2026-05-04 13:36 | 53.13061 | -23.64955 | 36365 ft | 454 kts | 272° |
| 2026-05-04 13:36 | 53.13175 | -23.75401 | 36365 ft | 454 kts | 272° |
| 2026-05-04 13:37 | 53.13280 | -23.85925 | 36369 ft | 454 kts | 272° |
| 2026-05-04 13:37 | 53.13376 | -23.96430 | 36369 ft | 453 kts | 272° |
| 2026-05-04 13:38 | 53.13463 | -24.06887 | 36373 ft | 453 kts | 272° |
| 2026-05-04 13:38 | 53.13540 | -24.17398 | 36369 ft | 453 kts | 271° |
| 2026-05-04 13:39 | 53.13608 | -24.27921 | 36373 ft | 453 kts | 271° |
| 2026-05-04 13:39 | 53.13667 | -24.38418 | 36377 ft | 454 kts | 271° |
| 2026-05-04 13:40 | 53.13716 | -24.48866 | 36379 ft | 454 kts | 271° |
| 2026-05-04 13:40 | 53.13757 | -24.59394 | 36381 ft | 454 kts | 271° |
| 2026-05-04 13:41 | 53.13788 | -24.69881 | 36374 ft | 454 kts | 271° |
| 2026-05-04 13:41 | 53.13807 | -24.78642 | 36386 ft | 454 kts | 271° |
| 2026-05-04 13:42 | 53.13825 | -24.94401 | 36382 ft | 454 kts | 271° |
| 2026-05-04 13:42 | 53.13825 | -25.04914 | 36389 ft | 454 kts | 270° |
| 2026-05-04 13:43 | 53.13816 | -25.15404 | 36385 ft | 454 kts | 270° |
| 2026-05-04 13:43 | 53.13798 | -25.25951 | 36384 ft | 454 kts | 270° |
| 2026-05-04 13:44 | 53.13771 | -25.36408 | 36385 ft | 454 kts | 270° |
| 2026-05-04 13:44 | 53.13734 | -25.46931 | 36392 ft | 454 kts | 270° |
| 2026-05-04 13:45 | 53.13688 | -25.57474 | 36388 ft | 454 kts | 270° |
| 2026-05-04 13:45 | 53.13633 | -25.67939 | 36395 ft | 453 kts | 270° |
| 2026-05-04 13:46 | 53.13569 | -25.78460 | 36399 ft | 453 kts | 270° |
| 2026-05-04 13:46 | 53.13495 | -25.88918 | 36400 ft | 453 kts | 269° |
| 2026-05-04 13:47 | 53.13413 | -25.99417 | 36396 ft | 453 kts | 269° |
| 2026-05-04 13:47 | 53.13321 | -26.09847 | 36405 ft | 452 kts | 269° |
| 2026-05-04 13:48 | 53.13220 | -26.20336 | 36400 ft | 452 kts | 269° |
| 2026-05-04 13:48 | 53.13110 | -26.30835 | 36398 ft | 452 kts | 269° |
| 2026-05-04 13:49 | 53.12991 | -26.41247 | 36402 ft | 452 kts | 269° |
| 2026-05-04 13:49 | 53.12863 | -26.51714 | 36397 ft | 451 kts | 269° |
| 2026-05-04 13:50 | 53.12725 | -26.62180 | 36398 ft | 451 kts | 269° |
| 2026-05-04 13:50 | 53.12579 | -26.72566 | 36404 ft | 451 kts | 269° |
| 2026-05-04 13:51 | 53.12424 | -26.83015 | 36411 ft | 451 kts | 269° |